ANZ174 YBBN-YSSY
Flight info
| Callsign | ANZ174 |
|---|---|
| Flight time | 1h 6m |
| Altitude | 38000 |
| Route | DCT BN H91 IGDAM H652 TESAT DCT |
| Aircraft | B77W/H-SDE1E2E3FGHIJ2J3J4J5M1RWXY/LB1D1 |
Departure
| Time | 2026-04-24 08:54 |
|---|---|
| Airport | Brisbane International Airport (YBBN) |
Arrival
| Time | 2026-04-24 10:00 |
|---|---|
| Airport | Sydney Kingsford Smith International Airport (YSSY) |
| Time | Latitude | Longitude | Altitude | Speed | Heading |
|---|---|---|---|---|---|
| 2026-04-24 08:29 | -27.40164 | 153.11231 | 27 ft | 0 kts | 297° |
| 2026-04-24 08:38 | -27.40167 | 153.11238 | 26 ft | 4 kts | 297° |
| 2026-04-24 08:38 | -27.40180 | 153.11265 | 27 ft | 4 kts | 297° |
| 2026-04-24 08:38 | -27.40191 | 153.11290 | 27 ft | 4 kts | 301° |
| 2026-04-24 08:39 | -27.40208 | 153.11307 | 26 ft | 4 kts | 358° |
| 2026-04-24 08:39 | -27.40234 | 153.11302 | 26 ft | 4 kts | 24° |
| 2026-04-24 08:39 | -27.40258 | 153.11288 | 26 ft | 4 kts | 30° |
| 2026-04-24 08:39 | -27.40263 | 153.11284 | 27 ft | 0 kts | 30° |
| 2026-04-24 08:41 | -27.40261 | 153.11285 | 27 ft | 1 kts | 30° |
| 2026-04-24 08:42 | -27.40254 | 153.11290 | 27 ft | 2 kts | 31° |
| 2026-04-24 08:42 | -27.40240 | 153.11300 | 25 ft | 3 kts | 31° |
| 2026-04-24 08:42 | -27.40220 | 153.11314 | 24 ft | 5 kts | 36° |
| 2026-04-24 08:42 | -27.40188 | 153.11369 | 27 ft | 14 kts | 78° |
| 2026-04-24 08:43 | -27.40204 | 153.11492 | 25 ft | 18 kts | 58° |
| 2026-04-24 08:43 | -27.40091 | 153.11563 | 24 ft | 19 kts | 27° |
| 2026-04-24 08:43 | -27.39974 | 153.11631 | 26 ft | 19 kts | 27° |
| 2026-04-24 08:43 | -27.39859 | 153.11697 | 23 ft | 19 kts | 26° |
| 2026-04-24 08:44 | -27.39742 | 153.11763 | 25 ft | 19 kts | 26° |
| 2026-04-24 08:44 | -27.39624 | 153.11830 | 24 ft | 19 kts | 26° |
| 2026-04-24 08:44 | -27.39508 | 153.11897 | 27 ft | 19 kts | 27° |
| 2026-04-24 08:44 | -27.39391 | 153.11964 | 26 ft | 19 kts | 27° |
| 2026-04-24 08:45 | -27.39274 | 153.12031 | 28 ft | 19 kts | 27° |
| 2026-04-24 08:45 | -27.39157 | 153.12097 | 25 ft | 19 kts | 27° |
| 2026-04-24 08:45 | -27.39040 | 153.12164 | 24 ft | 19 kts | 27° |
| 2026-04-24 08:45 | -27.38923 | 153.12231 | 25 ft | 19 kts | 27° |
| 2026-04-24 08:46 | -27.38806 | 153.12297 | 23 ft | 19 kts | 27° |
| 2026-04-24 08:46 | -27.38689 | 153.12364 | 25 ft | 19 kts | 27° |
| 2026-04-24 08:46 | -27.38573 | 153.12431 | 24 ft | 20 kts | 27° |
| 2026-04-24 08:46 | -27.38439 | 153.12507 | 25 ft | 23 kts | 27° |
| 2026-04-24 08:47 | -27.38288 | 153.12595 | 24 ft | 26 kts | 27° |
| 2026-04-24 08:47 | -27.38129 | 153.12685 | 23 ft | 26 kts | 27° |
| 2026-04-24 08:47 | -27.37974 | 153.12773 | 26 ft | 24 kts | 26° |
| 2026-04-24 08:47 | -27.37826 | 153.12858 | 25 ft | 24 kts | 27° |
| 2026-04-24 08:48 | -27.37678 | 153.12943 | 27 ft | 24 kts | 27° |
| 2026-04-24 08:48 | -27.37529 | 153.13028 | 24 ft | 24 kts | 27° |
| 2026-04-24 08:48 | -27.37383 | 153.13110 | 24 ft | 23 kts | 27° |
| 2026-04-24 08:48 | -27.37277 | 153.13193 | 26 ft | 15 kts | 73° |
| 2026-04-24 08:49 | -27.37306 | 153.13301 | 24 ft | 12 kts | 115° |
| 2026-04-24 08:49 | -27.37319 | 153.13334 | 26 ft | 0 kts | 115° |
| 2026-04-24 08:52 | -27.37340 | 153.13373 | 27 ft | 17 kts | 129° |
| 2026-04-24 08:52 | -27.37454 | 153.13431 | 27 ft | 18 kts | 182° |
| 2026-04-24 08:53 | -27.37505 | 153.13410 | 27 ft | 0 kts | 207° |
| 2026-04-24 08:53 | -27.37511 | 153.13406 | 27 ft | 9 kts | 207° |
| 2026-04-24 08:54 | -27.37726 | 153.13283 | 26 ft | 71 kts | 207° |
| 2026-04-24 08:54 | -27.38417 | 153.12892 | 26 ft | 148 kts | 206° |
| 2026-04-24 08:54 | -27.39446 | 153.12266 | 376 ft | 177 kts | 207° |
| 2026-04-24 08:54 | -27.40554 | 153.11599 | 1163 ft | 185 kts | 204° |
| 2026-04-24 08:55 | -27.41746 | 153.11006 | 1921 ft | 184 kts | 188° |
| 2026-04-24 08:55 | -27.43056 | 153.11082 | 2323 ft | 202 kts | 160° |
| 2026-04-24 08:55 | -27.44401 | 153.11767 | 2686 ft | 225 kts | 152° |
| 2026-04-24 08:55 | -27.45807 | 153.12616 | 3644 ft | 230 kts | 151° |
| 2026-04-24 08:56 | -27.47208 | 153.13459 | 4591 ft | 234 kts | 150° |
| 2026-04-24 08:56 | -27.48666 | 153.14329 | 5481 ft | 239 kts | 152° |
| 2026-04-24 08:56 | -27.50299 | 153.14736 | 6347 ft | 249 kts | 176° |
| 2026-04-24 08:56 | -27.52070 | 153.14421 | 7096 ft | 263 kts | 188° |
| 2026-04-24 08:57 | -27.53858 | 153.13964 | 8028 ft | 264 kts | 188° |
| 2026-04-24 08:57 | -27.55660 | 153.13498 | 8963 ft | 268 kts | 189° |
| 2026-04-24 08:57 | -27.57471 | 153.12850 | 9813 ft | 276 kts | 195° |
| 2026-04-24 08:57 | -27.58672 | 153.12361 | 10360 ft | 281 kts | 195° |
| 2026-04-24 08:58 | -27.60587 | 153.11584 | 10694 ft | 306 kts | 195° |
| 2026-04-24 08:58 | -27.63424 | 153.10494 | 10999 ft | 342 kts | 193° |
| 2026-04-24 08:58 | -27.65742 | 153.09721 | 11715 ft | 353 kts | 192° |
| 2026-04-24 08:58 | -27.68134 | 153.08943 | 12663 ft | 361 kts | 192° |
| 2026-04-24 08:59 | -27.70560 | 153.08148 | 13778 ft | 365 kts | 193° |
| 2026-04-24 08:59 | -27.73013 | 153.07338 | 14802 ft | 371 kts | 193° |
| 2026-04-24 08:59 | -27.75508 | 153.06507 | 15791 ft | 376 kts | 193° |
| 2026-04-24 08:59 | -27.78033 | 153.05663 | 16771 ft | 381 kts | 193° |
| 2026-04-24 09:00 | -27.79730 | 153.05096 | 17418 ft | 385 kts | 193° |
| 2026-04-24 09:00 | -27.82311 | 153.04221 | 18400 ft | 391 kts | 195° |
| 2026-04-24 09:00 | -27.84896 | 153.03180 | 19267 ft | 398 kts | 198° |
| 2026-04-24 09:00 | -27.87494 | 153.02027 | 20071 ft | 404 kts | 199° |
| 2026-04-24 09:01 | -27.90123 | 153.00835 | 20892 ft | 410 kts | 199° |
| 2026-04-24 09:01 | -27.92691 | 152.99677 | 21658 ft | 416 kts | 199° |
| 2026-04-24 09:01 | -27.95402 | 152.98469 | 22457 ft | 422 kts | 199° |
| 2026-04-24 09:01 | -27.98112 | 152.97274 | 23239 ft | 427 kts | 199° |
| 2026-04-24 09:02 | -28.00900 | 152.96052 | 23990 ft | 433 kts | 199° |
| 2026-04-24 09:02 | -28.03729 | 152.94813 | 24617 ft | 438 kts | 199° |
| 2026-04-24 09:02 | -28.06588 | 152.93561 | 25292 ft | 442 kts | 199° |
| 2026-04-24 09:02 | -28.09471 | 152.92296 | 25952 ft | 446 kts | 199° |
| 2026-04-24 09:03 | -28.12378 | 152.91011 | 26540 ft | 450 kts | 200° |
| 2026-04-24 09:03 | -28.15305 | 152.89709 | 27264 ft | 454 kts | 200° |
| 2026-04-24 09:03 | -28.18252 | 152.88395 | 27848 ft | 459 kts | 200° |
| 2026-04-24 09:03 | -28.21238 | 152.87062 | 28424 ft | 463 kts | 200° |
| 2026-04-24 09:04 | -28.24215 | 152.85734 | 28972 ft | 468 kts | 200° |
| 2026-04-24 09:04 | -28.27256 | 152.84377 | 29514 ft | 472 kts | 200° |
| 2026-04-24 09:04 | -28.30318 | 152.83010 | 30017 ft | 476 kts | 201° |
| 2026-04-24 09:04 | -28.33426 | 152.81621 | 30455 ft | 482 kts | 199° |
| 2026-04-24 09:05 | -28.36561 | 152.80221 | 30823 ft | 485 kts | 201° |
| 2026-04-24 09:05 | -28.39672 | 152.78830 | 31588 ft | 478 kts | 201° |
| 2026-04-24 09:05 | -28.42738 | 152.77457 | 32529 ft | 467 kts | 201° |
| 2026-04-24 09:05 | -28.45730 | 152.76117 | 33487 ft | 457 kts | 202° |
| 2026-04-24 09:06 | -28.48655 | 152.74806 | 34385 ft | 449 kts | 202° |
| 2026-04-24 09:06 | -28.51550 | 152.73509 | 34909 ft | 447 kts | 202° |
| 2026-04-24 09:06 | -28.54458 | 152.72205 | 35162 ft | 450 kts | 202° |
| 2026-04-24 09:06 | -28.57328 | 152.70916 | 35564 ft | 450 kts | 202° |
| 2026-04-24 09:07 | -28.60234 | 152.69610 | 35927 ft | 451 kts | 202° |
| 2026-04-24 09:07 | -28.69102 | 152.65623 | 36783 ft | 456 kts | 202° |
| 2026-04-24 09:08 | -28.72045 | 152.64298 | 37221 ft | 454 kts | 202° |
| 2026-04-24 09:08 | -28.74979 | 152.62976 | 37607 ft | 453 kts | 202° |
| 2026-04-24 09:08 | -28.77912 | 152.61654 | 37940 ft | 453 kts | 202° |
| 2026-04-24 09:08 | -28.80844 | 152.60332 | 38275 ft | 453 kts | 202° |
| 2026-04-24 09:09 | -28.86650 | 152.57534 | 38406 ft | 458 kts | 207° |
| 2026-04-24 09:09 | -28.92277 | 152.54199 | 38400 ft | 452 kts | 208° |
| 2026-04-24 09:10 | -28.97815 | 152.50856 | 38409 ft | 449 kts | 208° |
| 2026-04-24 09:10 | -29.03334 | 152.47552 | 38408 ft | 447 kts | 207° |
| 2026-04-24 09:11 | -29.08843 | 152.44267 | 38420 ft | 447 kts | 207° |
| 2026-04-24 09:11 | -29.14326 | 152.40998 | 38424 ft | 448 kts | 207° |
| 2026-04-24 09:12 | -29.19853 | 152.37698 | 38430 ft | 449 kts | 207° |
| 2026-04-24 09:12 | -29.25405 | 152.34379 | 38434 ft | 451 kts | 207° |
| 2026-04-24 09:13 | -29.30967 | 152.31049 | 38433 ft | 452 kts | 207° |
| 2026-04-24 09:13 | -29.36515 | 152.27724 | 38428 ft | 453 kts | 207° |
| 2026-04-24 09:14 | -29.42104 | 152.24369 | 38430 ft | 454 kts | 207° |
| 2026-04-24 09:14 | -29.47700 | 152.21006 | 38436 ft | 454 kts | 207° |
| 2026-04-24 09:15 | -29.53296 | 152.17638 | 38444 ft | 453 kts | 206° |
| 2026-04-24 09:15 | -29.58831 | 152.14303 | 38425 ft | 451 kts | 206° |
| 2026-04-24 09:16 | -29.64369 | 152.10963 | 38435 ft | 448 kts | 206° |
| 2026-04-24 09:16 | -29.69982 | 152.07892 | 38443 ft | 445 kts | 200° |
| 2026-04-24 09:17 | -29.75898 | 152.05900 | 38457 ft | 442 kts | 192° |
| 2026-04-24 09:17 | -29.81904 | 152.04375 | 38447 ft | 441 kts | 192° |
| 2026-04-24 09:18 | -29.87841 | 152.02864 | 38442 ft | 439 kts | 192° |
| 2026-04-24 09:18 | -29.93804 | 152.01316 | 38448 ft | 439 kts | 192° |
| 2026-04-24 09:19 | -29.99647 | 151.99786 | 38456 ft | 439 kts | 192° |
| 2026-04-24 09:19 | -30.05604 | 151.98223 | 38454 ft | 440 kts | 192° |
| 2026-04-24 09:20 | -30.12547 | 151.96400 | 38458 ft | 441 kts | 192° |
| 2026-04-24 09:20 | -30.17521 | 151.95093 | 38464 ft | 442 kts | 192° |
| 2026-04-24 09:21 | -30.23520 | 151.93515 | 38463 ft | 443 kts | 192° |
| 2026-04-24 09:21 | -30.29525 | 151.91933 | 38459 ft | 442 kts | 192° |
| 2026-04-24 09:22 | -30.35389 | 151.89846 | 38457 ft | 441 kts | 200° |
| 2026-04-24 09:22 | -30.41038 | 151.87193 | 38456 ft | 440 kts | 200° |
| 2026-04-24 09:23 | -30.46708 | 151.84512 | 38449 ft | 440 kts | 200° |
| 2026-04-24 09:23 | -30.52372 | 151.81854 | 38461 ft | 439 kts | 200° |
| 2026-04-24 09:24 | -30.58037 | 151.79205 | 38464 ft | 440 kts | 200° |
| 2026-04-24 09:24 | -30.63680 | 151.76567 | 38460 ft | 440 kts | 200° |
| 2026-04-24 09:25 | -30.69364 | 151.73906 | 38459 ft | 441 kts | 200° |
| 2026-04-24 09:25 | -30.75053 | 151.71238 | 38464 ft | 441 kts | 200° |
| 2026-04-24 09:26 | -30.80749 | 151.68563 | 38463 ft | 442 kts | 200° |
| 2026-04-24 09:26 | -30.86458 | 151.65878 | 38464 ft | 442 kts | 200° |
| 2026-04-24 09:27 | -30.92125 | 151.63210 | 38466 ft | 442 kts | 200° |
| 2026-04-24 09:27 | -30.97820 | 151.60526 | 38462 ft | 441 kts | 200° |
| 2026-04-24 09:28 | -31.03479 | 151.57856 | 38459 ft | 439 kts | 200° |
| 2026-04-24 09:28 | -31.09127 | 151.55186 | 38464 ft | 437 kts | 200° |
| 2026-04-24 09:29 | -31.14713 | 151.52543 | 38458 ft | 436 kts | 199° |
| 2026-04-24 09:29 | -31.20320 | 151.49887 | 38476 ft | 435 kts | 199° |
| 2026-04-24 09:30 | -31.26883 | 151.46773 | 38481 ft | 435 kts | 199° |
| 2026-04-24 09:30 | -31.31548 | 151.44556 | 38459 ft | 436 kts | 199° |
| 2026-04-24 09:31 | -31.37129 | 151.41902 | 38465 ft | 437 kts | 199° |
| 2026-04-24 09:31 | -31.42780 | 151.39291 | 38469 ft | 437 kts | 198° |
| 2026-04-24 09:32 | -31.48480 | 151.36775 | 38458 ft | 438 kts | 198° |
| 2026-04-24 09:32 | -31.54186 | 151.34251 | 38475 ft | 439 kts | 198° |
| 2026-04-24 09:33 | -31.59857 | 151.31722 | 38458 ft | 438 kts | 198° |
| 2026-04-24 09:33 | -31.65544 | 151.29178 | 38458 ft | 437 kts | 198° |
| 2026-04-24 09:34 | -31.71204 | 151.26641 | 38469 ft | 435 kts | 198° |
| 2026-04-24 09:34 | -31.76844 | 151.24109 | 38469 ft | 434 kts | 198° |
| 2026-04-24 09:35 | -31.82520 | 151.21561 | 37606 ft | 443 kts | 198° |
| 2026-04-24 09:35 | -31.85340 | 151.20292 | 37160 ft | 436 kts | 198° |
| 2026-04-24 09:35 | -31.88154 | 151.19024 | 36663 ft | 431 kts | 198° |
| 2026-04-24 09:36 | -31.90943 | 151.17767 | 36175 ft | 427 kts | 198° |
| 2026-04-24 09:36 | -31.93706 | 151.16522 | 35680 ft | 423 kts | 198° |
| 2026-04-24 09:36 | -31.96450 | 151.15289 | 35191 ft | 420 kts | 197° |
| 2026-04-24 09:36 | -31.99167 | 151.14071 | 34710 ft | 417 kts | 197° |
| 2026-04-24 09:37 | -32.01867 | 151.12862 | 34170 ft | 415 kts | 197° |
| 2026-04-24 09:37 | -32.04556 | 151.11657 | 33657 ft | 412 kts | 197° |
| 2026-04-24 09:37 | -32.07181 | 151.10478 | 33160 ft | 409 kts | 197° |
| 2026-04-24 09:37 | -32.09838 | 151.09286 | 32682 ft | 406 kts | 198° |
| 2026-04-24 09:38 | -32.12465 | 151.08106 | 32211 ft | 403 kts | 198° |
| 2026-04-24 09:38 | -32.15078 | 151.06932 | 31746 ft | 400 kts | 198° |
| 2026-04-24 09:38 | -32.17667 | 151.05767 | 31285 ft | 398 kts | 198° |
| 2026-04-24 09:38 | -32.20251 | 151.04603 | 30838 ft | 395 kts | 198° |
| 2026-04-24 09:39 | -32.22813 | 151.03449 | 30353 ft | 393 kts | 198° |
| 2026-04-24 09:39 | -32.25362 | 151.02300 | 29847 ft | 391 kts | 198° |
| 2026-04-24 09:39 | -32.27890 | 151.01159 | 29392 ft | 388 kts | 198° |
| 2026-04-24 09:39 | -32.30403 | 151.00024 | 28930 ft | 385 kts | 198° |
| 2026-04-24 09:40 | -32.32805 | 150.98939 | 28496 ft | 382 kts | 198° |
| 2026-04-24 09:40 | -32.35284 | 150.97819 | 28043 ft | 380 kts | 198° |
| 2026-04-24 09:40 | -32.37748 | 150.96705 | 27599 ft | 378 kts | 198° |
| 2026-04-24 09:40 | -32.40164 | 150.95612 | 27178 ft | 376 kts | 198° |
| 2026-04-24 09:41 | -32.42600 | 150.94509 | 26734 ft | 374 kts | 198° |
| 2026-04-24 09:41 | -32.45022 | 150.93412 | 26301 ft | 372 kts | 198° |
| 2026-04-24 09:41 | -32.47445 | 150.92361 | 25870 ft | 368 kts | 193° |
| 2026-04-24 09:41 | -32.49941 | 150.91791 | 25454 ft | 363 kts | 183° |
| 2026-04-24 09:42 | -32.52448 | 150.91675 | 25025 ft | 360 kts | 175° |
| 2026-04-24 09:42 | -32.54932 | 150.92002 | 24588 ft | 357 kts | 169° |
| 2026-04-24 09:42 | -32.57381 | 150.92457 | 24156 ft | 357 kts | 168° |
| 2026-04-24 09:42 | -32.59836 | 150.92929 | 23649 ft | 357 kts | 168° |
| 2026-04-24 09:43 | -32.62292 | 150.93397 | 23181 ft | 356 kts | 168° |
| 2026-04-24 09:43 | -32.64701 | 150.93846 | 22736 ft | 355 kts | 169° |
| 2026-04-24 09:43 | -32.67136 | 150.94292 | 22295 ft | 354 kts | 169° |
| 2026-04-24 09:43 | -32.69569 | 150.94734 | 21862 ft | 352 kts | 169° |
| 2026-04-24 09:44 | -32.71989 | 150.95170 | 21442 ft | 351 kts | 169° |
| 2026-04-24 09:44 | -32.74398 | 150.95605 | 21013 ft | 350 kts | 169° |
| 2026-04-24 09:44 | -32.76807 | 150.96039 | 20588 ft | 349 kts | 169° |
| 2026-04-24 09:44 | -32.79210 | 150.96473 | 20161 ft | 349 kts | 169° |
| 2026-04-24 09:45 | -32.81606 | 150.96900 | 19732 ft | 349 kts | 169° |
| 2026-04-24 09:45 | -32.84009 | 150.97326 | 19282 ft | 349 kts | 169° |
| 2026-04-24 09:45 | -32.86373 | 150.97745 | 18888 ft | 348 kts | 169° |
| 2026-04-24 09:45 | -32.88774 | 150.98169 | 18392 ft | 349 kts | 169° |
| 2026-04-24 09:46 | -32.91180 | 150.98595 | 17919 ft | 349 kts | 169° |
| 2026-04-24 09:46 | -32.93580 | 150.99021 | 17471 ft | 348 kts | 169° |
| 2026-04-24 09:46 | -32.95976 | 150.99447 | 17039 ft | 348 kts | 169° |
| 2026-04-24 09:46 | -32.98368 | 150.99872 | 16604 ft | 347 kts | 169° |
| 2026-04-24 09:47 | -33.00745 | 151.00296 | 16160 ft | 347 kts | 169° |
| 2026-04-24 09:47 | -33.03129 | 151.00720 | 15734 ft | 346 kts | 169° |
| 2026-04-24 09:47 | -33.05480 | 151.01139 | 15311 ft | 346 kts | 169° |
| 2026-04-24 09:47 | -33.07854 | 151.01563 | 14875 ft | 346 kts | 169° |
| 2026-04-24 09:48 | -33.10237 | 151.01988 | 14447 ft | 346 kts | 169° |
| 2026-04-24 09:48 | -33.12616 | 151.02413 | 13972 ft | 346 kts | 169° |
| 2026-04-24 09:48 | -33.14996 | 151.02838 | 13510 ft | 345 kts | 169° |
| 2026-04-24 09:48 | -33.17365 | 151.03261 | 13052 ft | 344 kts | 169° |
| 2026-04-24 09:49 | -33.19734 | 151.03685 | 12616 ft | 343 kts | 169° |
| 2026-04-24 09:49 | -33.22092 | 151.04106 | 12192 ft | 342 kts | 169° |
| 2026-04-24 09:49 | -33.24442 | 151.04530 | 11760 ft | 341 kts | 168° |
| 2026-04-24 09:49 | -33.26756 | 151.04969 | 11325 ft | 341 kts | 168° |
| 2026-04-24 09:50 | -33.29090 | 151.05420 | 10918 ft | 340 kts | 168° |
| 2026-04-24 09:50 | -33.31394 | 151.05865 | 10770 ft | 330 kts | 168° |
| 2026-04-24 09:50 | -33.33632 | 151.06294 | 10613 ft | 322 kts | 168° |
| 2026-04-24 09:50 | -33.35815 | 151.06712 | 10420 ft | 315 kts | 168° |
| 2026-04-24 09:51 | -33.37962 | 151.07124 | 10165 ft | 310 kts | 168° |
| 2026-04-24 09:51 | -33.40076 | 151.07530 | 9938 ft | 303 kts | 168° |
| 2026-04-24 09:51 | -33.42116 | 151.07922 | 9859 ft | 291 kts | 168° |
| 2026-04-24 09:51 | -33.44075 | 151.08297 | 9738 ft | 281 kts | 168° |
| 2026-04-24 09:52 | -33.45973 | 151.08661 | 9555 ft | 273 kts | 168° |
| 2026-04-24 09:52 | -33.47843 | 151.09020 | 9285 ft | 270 kts | 168° |
| 2026-04-24 09:52 | -33.49696 | 151.09377 | 8963 ft | 270 kts | 168° |
| 2026-04-24 09:52 | -33.51531 | 151.09732 | 8621 ft | 271 kts | 168° |
| 2026-04-24 09:53 | -33.53393 | 151.09876 | 8210 ft | 271 kts | 184° |
| 2026-04-24 09:53 | -33.55263 | 151.09444 | 7829 ft | 274 kts | 191° |
| 2026-04-24 09:53 | -33.57108 | 151.08885 | 7559 ft | 273 kts | 192° |
| 2026-04-24 09:53 | -33.58959 | 151.08510 | 7105 ft | 271 kts | 176° |
| 2026-04-24 09:54 | -33.60838 | 151.08794 | 6642 ft | 274 kts | 166° |
| 2026-04-24 09:54 | -33.62716 | 151.09287 | 6158 ft | 279 kts | 165° |
| 2026-04-24 09:54 | -33.64623 | 151.09809 | 5678 ft | 279 kts | 165° |
| 2026-04-24 09:54 | -33.66463 | 151.10294 | 5286 ft | 262 kts | 166° |
| 2026-04-24 09:55 | -33.68172 | 151.10737 | 4933 ft | 249 kts | 166° |
| 2026-04-24 09:55 | -33.69870 | 151.11177 | 4623 ft | 253 kts | 166° |
| 2026-04-24 09:55 | -33.71637 | 151.11635 | 4309 ft | 264 kts | 166° |
| 2026-04-24 09:55 | -33.73440 | 151.12102 | 3950 ft | 267 kts | 166° |
| 2026-04-24 09:56 | -33.75258 | 151.12572 | 3587 ft | 268 kts | 166° |
| 2026-04-24 09:56 | -33.77054 | 151.13036 | 3203 ft | 256 kts | 166° |
| 2026-04-24 09:56 | -33.78733 | 151.13469 | 2912 ft | 236 kts | 165° |
| 2026-04-24 09:56 | -33.80267 | 151.13866 | 2604 ft | 215 kts | 166° |
| 2026-04-24 09:57 | -33.81644 | 151.14223 | 2322 ft | 190 kts | 166° |
| 2026-04-24 09:57 | -33.82864 | 151.14539 | 2054 ft | 169 kts | 165° |
| 2026-04-24 09:57 | -33.83960 | 151.14825 | 1850 ft | 161 kts | 165° |
| 2026-04-24 09:57 | -33.85033 | 151.15104 | 1640 ft | 151 kts | 165° |
| 2026-04-24 09:58 | -33.86037 | 151.15365 | 1466 ft | 148 kts | 165° |
| 2026-04-24 09:58 | -33.87052 | 151.15629 | 1255 ft | 150 kts | 165° |
| 2026-04-24 09:58 | -33.88025 | 151.15882 | 1061 ft | 146 kts | 165° |
| 2026-04-24 09:58 | -33.89004 | 151.16140 | 849 ft | 143 kts | 165° |
| 2026-04-24 09:59 | -33.89962 | 151.16399 | 679 ft | 140 kts | 167° |
| 2026-04-24 09:59 | -33.90914 | 151.16641 | 502 ft | 141 kts | 169° |
| 2026-04-24 09:59 | -33.91860 | 151.16893 | 314 ft | 142 kts | 170° |
| 2026-04-24 09:59 | -33.92820 | 151.17131 | 135 ft | 141 kts | 171° |
| 2026-04-24 10:00 | -33.93771 | 151.17372 | 33 ft | 133 kts | 170° |
| 2026-04-24 10:00 | -33.94562 | 151.17581 | 35 ft | 95 kts | 167° |
| 2026-04-24 10:00 | -33.95057 | 151.17709 | 32 ft | 51 kts | 168° |
| 2026-04-24 10:00 | -33.95241 | 151.17695 | 33 ft | 16 kts | 249° |
| 2026-04-24 10:01 | -33.95248 | 151.17572 | 32 ft | 16 kts | 311° |
| 2026-04-24 10:01 | -33.95168 | 151.17532 | 34 ft | 9 kts | 355° |
| 2026-04-24 10:01 | -33.95106 | 151.17520 | 34 ft | 9 kts | 347° |
| 2026-04-24 10:01 | -33.95036 | 151.17500 | 34 ft | 13 kts | 347° |
| 2026-04-24 10:02 | -33.94911 | 151.17469 | 34 ft | 24 kts | 345° |
| 2026-04-24 10:02 | -33.94739 | 151.17423 | 35 ft | 23 kts | 347° |
| 2026-04-24 10:02 | -33.94596 | 151.17386 | 35 ft | 20 kts | 348° |
| 2026-04-24 10:02 | -33.94461 | 151.17350 | 35 ft | 20 kts | 347° |
| 2026-04-24 10:03 | -33.94326 | 151.17315 | 35 ft | 20 kts | 349° |
| 2026-04-24 10:03 | -33.94193 | 151.17282 | 33 ft | 19 kts | 348° |
| 2026-04-24 10:03 | -33.94061 | 151.17247 | 34 ft | 19 kts | 347° |
| 2026-04-24 10:03 | -33.93986 | 151.17168 | 34 ft | 14 kts | 274° |
| 2026-04-24 10:04 | -33.93931 | 151.17100 | 34 ft | 9 kts | 343° |
| 2026-04-24 10:04 | -33.93914 | 151.17037 | 35 ft | 9 kts | 259° |
| 2026-04-24 10:04 | -33.93922 | 151.16996 | 35 ft | 0 kts | 255° |
| 2026-04-24 10:04 | -33.93923 | 151.16991 | 35 ft | 1 kts | 255° |
| 2026-04-24 10:05 | -33.93924 | 151.16988 | 35 ft | 0 kts | 255° |
| 2026-04-24 10:05 | -33.93924 | 151.16986 | 35 ft | 0 kts | 255° |